Terminal Aerodrome Forecast
Issued by NWS Oklahoma City, OK

Home | Current Version | Previous Version | Text Only | Print | Product List | Glossary On
Versions: 1 2 3 4 5 6 7 8 9 10 11 12 13 14 15 16 17 18 19 20 21 22 23 24 25 26 27 28
000
FTUS44 KOUN 301720
TAFOUN
TAF
KOUN 301720Z 3018/0118 23017G27KT P6SM VCSH BKN025 BKN150
     FM302100 27025G35KT P6SM VCSH BKN025 BKN150
     FM010200 30015KT P6SM SCT250=

USA.gov is the U.S. government's official web portal to all federal, state and local government web resources and services.